sensor_id;sensor_type;location;lat;lon;timestamp;P1;durP1;ratioP1;P2;durP2;ratioP2
4027;SDS011;2028;51.346;12.396;2023-04-03T00:01:22;4.13;;;3.05;;
4027;SDS011;2028;51.346;12.396;2023-04-03T00:03:48;5.53;;;3.60;;
4027;SDS011;2028;51.346;12.396;2023-04-03T00:06:16;6.28;;;3.30;;
4027;SDS011;2028;51.346;12.396;2023-04-03T00:08:43;4.65;;;2.95;;
4027;SDS011;2028;51.346;12.396;2023-04-03T00:11:10;4.75;;;2.50;;
4027;SDS011;2028;51.346;12.396;2023-04-03T00:13:36;4.68;;;2.90;;
4027;SDS011;2028;51.346;12.396;2023-04-03T00:16:03;6.05;;;3.17;;
4027;SDS011;2028;51.346;12.396;2023-04-03T00:18:30;3.20;;;2.63;;
4027;SDS011;2028;51.346;12.396;2023-04-03T00:20:56;5.05;;;2.97;;
4027;SDS011;2028;51.346;12.396;2023-04-03T00:23:22;4.30;;;3.10;;
4027;SDS011;2028;51.346;12.396;2023-04-03T00:25:49;5.07;;;3.20;;
4027;SDS011;2028;51.346;12.396;2023-04-03T00:28:16;6.22;;;3.38;;
4027;SDS011;2028;51.346;12.396;2023-04-03T00:30:42;5.75;;;3.05;;
4027;SDS011;2028;51.346;12.396;2023-04-03T00:33:10;6.78;;;3.38;;
4027;SDS011;2028;51.346;12.396;2023-04-03T00:35:38;5.95;;;3.50;;
4027;SDS011;2028;51.346;12.396;2023-04-03T00:38:04;6.82;;;3.50;;
4027;SDS011;2028;51.346;12.396;2023-04-03T00:40:35;6.38;;;3.03;;
4027;SDS011;2028;51.346;12.396;2023-04-03T00:43:02;8.98;;;5.72;;
4027;SDS011;2028;51.346;12.396;2023-04-03T00:47:58;5.60;;;3.05;;
4027;SDS011;2028;51.346;12.396;2023-04-03T00:50:27;5.78;;;3.67;;
4027;SDS011;2028;51.346;12.396;2023-04-03T00:52:55;5.38;;;3.22;;
4027;SDS011;2028;51.346;12.396;2023-04-03T00:55:22;5.03;;;3.13;;
4027;SDS011;2028;51.346;12.396;2023-04-03T00:57:48;8.50;;;3.53;;
4027;SDS011;2028;51.346;12.396;2023-04-03T01:00:16;5.00;;;3.30;;
4027;SDS011;2028;51.346;12.396;2023-04-03T01:02:43;4.97;;;2.72;;
4027;SDS011;2028;51.346;12.396;2023-04-03T01:05:10;6.15;;;3.42;;
4027;SDS011;2028;51.346;12.396;2023-04-03T01:07:37;5.95;;;3.08;;
4027;SDS011;2028;51.346;12.396;2023-04-03T01:10:06;4.63;;;3.40;;
4027;SDS011;2028;51.346;12.396;2023-04-03T01:12:35;5.32;;;3.20;;
4027;SDS011;2028;51.346;12.396;2023-04-03T01:15:12;6.68;;;3.45;;
4027;SDS011;2028;51.346;12.396;2023-04-03T01:17:56;5.63;;;3.85;;
4027;SDS011;2028;51.346;12.396;2023-04-03T01:25:23;5.50;;;3.20;;
4027;SDS011;2028;51.346;12.396;2023-04-03T01:27:49;5.43;;;3.35;;
4027;SDS011;2028;51.346;12.396;2023-04-03T01:30:17;5.68;;;3.00;;
4027;SDS011;2028;51.346;12.396;2023-04-03T01:32:43;5.43;;;3.13;;
4027;SDS011;2028;51.346;12.396;2023-04-03T01:35:09;6.75;;;3.72;;
4027;SDS011;2028;51.346;12.396;2023-04-03T01:37:36;7.88;;;4.07;;
4027;SDS011;2028;51.346;12.396;2023-04-03T01:40:03;5.78;;;3.50;;
4027;SDS011;2028;51.346;12.396;2023-04-03T01:42:29;4.50;;;3.40;;
4027;SDS011;2028;51.346;12.396;2023-04-03T01:44:55;5.82;;;3.47;;
4027;SDS011;2028;51.346;12.396;2023-04-03T01:47:22;7.82;;;3.72;;
4027;SDS011;2028;51.346;12.396;2023-04-03T01:49:48;4.60;;;3.40;;
4027;SDS011;2028;51.346;12.396;2023-04-03T01:52:14;5.77;;;3.50;;
4027;SDS011;2028;51.346;12.396;2023-04-03T01:54:40;7.97;;;3.65;;
4027;SDS011;2028;51.346;12.396;2023-04-03T01:57:07;7.43;;;3.70;;
4027;SDS011;2028;51.346;12.396;2023-04-03T01:59:33;6.78;;;3.58;;
4027;SDS011;2028;51.346;12.396;2023-04-03T02:01:59;7.57;;;4.10;;
4027;SDS011;2028;51.346;12.396;2023-04-03T02:04:25;7.78;;;4.28;;
4027;SDS011;2028;51.346;12.396;2023-04-03T02:06:52;6.25;;;4.07;;
4027;SDS011;2028;51.346;12.396;2023-04-03T02:09:18;6.70;;;4.10;;
4027;SDS011;2028;51.346;12.396;2023-04-03T02:11:45;6.00;;;3.45;;
4027;SDS011;2028;51.346;12.396;2023-04-03T02:14:11;8.15;;;4.05;;
4027;SDS011;2028;51.346;12.396;2023-04-03T02:16:37;7.43;;;3.80;;
4027;SDS011;2028;51.346;12.396;2023-04-03T02:19:04;5.85;;;3.55;;
4027;SDS011;2028;51.346;12.396;2023-04-03T02:21:30;4.07;;;3.38;;
4027;SDS011;2028;51.346;12.396;2023-04-03T02:23:56;5.93;;;3.33;;
4027;SDS011;2028;51.346;12.396;2023-04-03T02:26:22;7.95;;;4.05;;
4027;SDS011;2028;51.346;12.396;2023-04-03T02:28:48;5.35;;;3.40;;
4027;SDS011;2028;51.346;12.396;2023-04-03T02:31:15;6.28;;;3.67;;
4027;SDS011;2028;51.346;12.396;2023-04-03T02:33:41;4.68;;;3.63;;
4027;SDS011;2028;51.346;12.396;2023-04-03T02:36:07;6.55;;;3.58;;
4027;SDS011;2028;51.346;12.396;2023-04-03T02:38:34;4.78;;;2.97;;
4027;SDS011;2028;51.346;12.396;2023-04-03T02:41:01;6.10;;;3.47;;
4027;SDS011;2028;51.346;12.396;2023-04-03T02:43:32;7.40;;;3.78;;
4027;SDS011;2028;51.346;12.396;2023-04-03T02:45:58;6.90;;;3.95;;
4027;SDS011;2028;51.346;12.396;2023-04-03T02:48:24;7.18;;;3.88;;
4027;SDS011;2028;51.346;12.396;2023-04-03T02:50:51;4.95;;;3.38;;
4027;SDS011;2028;51.346;12.396;2023-04-03T02:53:18;5.35;;;3.80;;
4027;SDS011;2028;51.346;12.396;2023-04-03T02:55:45;4.65;;;3.72;;
4027;SDS011;2028;51.346;12.396;2023-04-03T02:58:11;6.13;;;3.63;;
4027;SDS011;2028;51.346;12.396;2023-04-03T03:00:37;4.97;;;3.67;;
4027;SDS011;2028;51.346;12.396;2023-04-03T03:03:04;5.57;;;3.40;;
4027;SDS011;2028;51.346;12.396;2023-04-03T03:05:30;8.13;;;4.07;;
4027;SDS011;2028;51.346;12.396;2023-04-03T03:07:56;6.22;;;3.47;;
4027;SDS011;2028;51.346;12.396;2023-04-03T03:10:22;6.22;;;3.85;;
4027;SDS011;2028;51.346;12.396;2023-04-03T03:12:49;7.25;;;3.30;;
4027;SDS011;2028;51.346;12.396;2023-04-03T03:15:16;6.97;;;3.63;;
4027;SDS011;2028;51.346;12.396;2023-04-03T03:17:44;5.82;;;3.40;;
4027;SDS011;2028;51.346;12.396;2023-04-03T03:20:11;7.78;;;4.35;;
4027;SDS011;2028;51.346;12.396;2023-04-03T03:22:40;8.55;;;3.63;;
4027;SDS011;2028;51.346;12.396;2023-04-03T03:25:06;5.35;;;3.20;;
4027;SDS011;2028;51.346;12.396;2023-04-03T03:27:33;4.95;;;3.33;;
4027;SDS011;2028;51.346;12.396;2023-04-03T03:29:59;5.78;;;3.60;;
4027;SDS011;2028;51.346;12.396;2023-04-03T03:32:26;7.90;;;3.78;;
4027;SDS011;2028;51.346;12.396;2023-04-03T03:34:52;5.18;;;3.60;;
4027;SDS011;2028;51.346;12.396;2023-04-03T03:37:19;6.05;;;3.45;;
4027;SDS011;2028;51.346;12.396;2023-04-03T03:39:45;5.78;;;3.72;;
4027;SDS011;2028;51.346;12.396;2023-04-03T03:42:11;7.20;;;3.75;;
4027;SDS011;2028;51.346;12.396;2023-04-03T03:44:37;6.40;;;3.58;;
4027;SDS011;2028;51.346;12.396;2023-04-03T03:47:03;4.82;;;3.35;;
4027;SDS011;2028;51.346;12.396;2023-04-03T03:49:31;6.72;;;3.70;;
4027;SDS011;2028;51.346;12.396;2023-04-03T03:51:57;5.50;;;3.85;;
4027;SDS011;2028;51.346;12.396;2023-04-03T03:54:23;4.68;;;3.65;;
4027;SDS011;2028;51.346;12.396;2023-04-03T03:56:49;5.13;;;3.28;;
4027;SDS011;2028;51.346;12.396;2023-04-03T03:59:15;5.60;;;3.60;;
4027;SDS011;2028;51.346;12.396;2023-04-03T04:01:42;5.93;;;3.80;;
4027;SDS011;2028;51.346;12.396;2023-04-03T04:04:08;7.90;;;4.00;;
4027;SDS011;2028;51.346;12.396;2023-04-03T04:06:34;6.05;;;3.78;;
4027;SDS011;2028;51.346;12.396;2023-04-03T04:09:00;5.82;;;3.38;;
4027;SDS011;2028;51.346;12.396;2023-04-03T04:11:27;8.45;;;3.67;;
4027;SDS011;2028;51.346;12.396;2023-04-03T04:13:53;7.57;;;3.87;;
4027;SDS011;2028;51.346;12.396;2023-04-03T04:16:19;6.28;;;3.42;;
4027;SDS011;2028;51.346;12.396;2023-04-03T04:18:45;6.72;;;3.83;;
4027;SDS011;2028;51.346;12.396;2023-04-03T04:21:11;6.22;;;3.88;;
4027;SDS011;2028;51.346;12.396;2023-04-03T04:23:37;5.47;;;3.97;;
4027;SDS011;2028;51.346;12.396;2023-04-03T04:26:03;6.93;;;3.70;;
4027;SDS011;2028;51.346;12.396;2023-04-03T04:28:29;8.80;;;3.97;;
4027;SDS011;2028;51.346;12.396;2023-04-03T04:30:55;4.40;;;3.78;;
4027;SDS011;2028;51.346;12.396;2023-04-03T04:33:21;9.10;;;4.87;;
4027;SDS011;2028;51.346;12.396;2023-04-03T04:35:48;13.35;;;8.63;;
4027;SDS011;2028;51.346;12.396;2023-04-03T04:38:14;18.13;;;13.05;;
4027;SDS011;2028;51.346;12.396;2023-04-03T04:40:40;29.88;;;22.60;;
4027;SDS011;2028;51.346;12.396;2023-04-03T04:43:06;37.50;;;29.17;;
4027;SDS011;2028;51.346;12.396;2023-04-03T04:45:33;34.67;;;29.92;;
4027;SDS011;2028;51.346;12.396;2023-04-03T04:47:59;41.15;;;31.63;;
4027;SDS011;2028;51.346;12.396;2023-04-03T04:50:26;40.03;;;34.13;;
4027;SDS011;2028;51.346;12.396;2023-04-03T04:52:52;41.08;;;33.65;;
4027;SDS011;2028;51.346;12.396;2023-04-03T04:55:19;39.80;;;29.23;;
4027;SDS011;2028;51.346;12.396;2023-04-03T04:57:45;45.97;;;32.53;;
4027;SDS011;2028;51.346;12.396;2023-04-03T05:00:12;35.97;;;24.08;;
4027;SDS011;2028;51.346;12.396;2023-04-03T05:02:39;26.38;;;18.23;;
4027;SDS011;2028;51.346;12.396;2023-04-03T05:05:05;25.40;;;16.27;;
4027;SDS011;2028;51.346;12.396;2023-04-03T05:07:32;24.58;;;16.10;;
4027;SDS011;2028;51.346;12.396;2023-04-03T05:09:58;24.55;;;16.58;;
4027;SDS011;2028;51.346;12.396;2023-04-03T05:12:24;25.45;;;15.23;;
4027;SDS011;2028;51.346;12.396;2023-04-03T05:14:51;19.50;;;13.10;;
4027;SDS011;2028;51.346;12.396;2023-04-03T05:17:17;21.13;;;14.17;;
4027;SDS011;2028;51.346;12.396;2023-04-03T05:19:43;22.93;;;16.63;;
4027;SDS011;2028;51.346;12.396;2023-04-03T05:22:09;38.03;;;18.60;;
4027;SDS011;2028;51.346;12.396;2023-04-03T05:24:35;25.15;;;13.48;;
4027;SDS011;2028;51.346;12.396;2023-04-03T05:27:01;22.77;;;15.20;;
4027;SDS011;2028;51.346;12.396;2023-04-03T05:29:27;28.30;;;18.90;;
4027;SDS011;2028;51.346;12.396;2023-04-03T05:31:53;24.85;;;17.80;;
4027;SDS011;2028;51.346;12.396;2023-04-03T05:34:20;18.25;;;13.73;;
4027;SDS011;2028;51.346;12.396;2023-04-03T05:36:46;15.63;;;12.52;;
4027;SDS011;2028;51.346;12.396;2023-04-03T05:39:13;17.63;;;13.60;;
4027;SDS011;2028;51.346;12.396;2023-04-03T05:41:39;17.65;;;13.75;;
4027;SDS011;2028;51.346;12.396;2023-04-03T05:44:06;23.02;;;12.93;;
4027;SDS011;2028;51.346;12.396;2023-04-03T05:46:32;17.70;;;11.95;;
4027;SDS011;2028;51.346;12.396;2023-04-03T05:48:58;12.90;;;9.45;;
4027;SDS011;2028;51.346;12.396;2023-04-03T05:51:25;16.60;;;8.25;;
4027;SDS011;2028;51.346;12.396;2023-04-03T05:54:00;15.93;;;8.65;;
4027;SDS011;2028;51.346;12.396;2023-04-03T05:56:32;12.80;;;8.15;;
4027;SDS011;2028;51.346;12.396;2023-04-03T05:58:59;10.85;;;7.43;;
4027;SDS011;2028;51.346;12.396;2023-04-03T06:01:25;10.48;;;6.97;;
4027;SDS011;2028;51.346;12.396;2023-04-03T06:03:52;13.25;;;8.82;;
4027;SDS011;2028;51.346;12.396;2023-04-03T06:06:19;12.02;;;9.02;;
4027;SDS011;2028;51.346;12.396;2023-04-03T06:08:47;15.52;;;10.15;;
4027;SDS011;2028;51.346;12.396;2023-04-03T06:11:13;15.32;;;10.75;;
4027;SDS011;2028;51.346;12.396;2023-04-03T06:13:40;15.40;;;10.93;;
4027;SDS011;2028;51.346;12.396;2023-04-03T06:16:06;13.48;;;9.07;;
4027;SDS011;2028;51.346;12.396;2023-04-03T06:18:34;13.15;;;7.65;;
4027;SDS011;2028;51.346;12.396;2023-04-03T06:21:00;12.23;;;8.50;;
4027;SDS011;2028;51.346;12.396;2023-04-03T06:23:28;14.05;;;8.63;;
4027;SDS011;2028;51.346;12.396;2023-04-03T06:25:54;10.43;;;6.22;;
4027;SDS011;2028;51.346;12.396;2023-04-03T06:28:20;9.93;;;6.30;;
4027;SDS011;2028;51.346;12.396;2023-04-03T06:30:46;8.85;;;5.63;;
4027;SDS011;2028;51.346;12.396;2023-04-03T06:33:12;8.18;;;5.10;;
4027;SDS011;2028;51.346;12.396;2023-04-03T06:35:38;8.18;;;5.50;;
4027;SDS011;2028;51.346;12.396;2023-04-03T06:38:05;10.75;;;4.75;;
4027;SDS011;2028;51.346;12.396;2023-04-03T06:40:34;11.10;;;3.95;;
4027;SDS011;2028;51.346;12.396;2023-04-03T06:43:01;5.13;;;3.30;;
4027;SDS011;2028;51.346;12.396;2023-04-03T06:45:28;8.88;;;4.68;;
4027;SDS011;2028;51.346;12.396;2023-04-03T06:47:54;5.63;;;3.70;;
4027;SDS011;2028;51.346;12.396;2023-04-03T06:50:20;5.32;;;3.80;;
4027;SDS011;2028;51.346;12.396;2023-04-03T06:52:47;6.28;;;3.90;;
4027;SDS011;2028;51.346;12.396;2023-04-03T06:55:13;5.85;;;4.07;;
4027;SDS011;2028;51.346;12.396;2023-04-03T06:57:39;3.85;;;2.97;;
4027;SDS011;2028;51.346;12.396;2023-04-03T07:00:06;5.75;;;3.10;;
4027;SDS011;2028;51.346;12.396;2023-04-03T07:02:32;5.05;;;2.92;;
4027;SDS011;2028;51.346;12.396;2023-04-03T07:04:59;6.43;;;3.13;;
4027;SDS011;2028;51.346;12.396;2023-04-03T07:07:25;4.63;;;3.03;;
4027;SDS011;2028;51.346;12.396;2023-04-03T07:09:51;3.47;;;2.63;;
4027;SDS011;2028;51.346;12.396;2023-04-03T07:12:17;5.07;;;2.80;;
4027;SDS011;2028;51.346;12.396;2023-04-03T07:14:44;6.57;;;3.13;;
4027;SDS011;2028;51.346;12.396;2023-04-03T07:17:10;6.27;;;2.40;;
4027;SDS011;2028;51.346;12.396;2023-04-03T07:19:37;4.70;;;2.90;;
4027;SDS011;2028;51.346;12.396;2023-04-03T07:22:03;4.53;;;2.63;;
4027;SDS011;2028;51.346;12.396;2023-04-03T07:24:29;6.93;;;2.93;;
4027;SDS011;2028;51.346;12.396;2023-04-03T07:26:55;4.57;;;2.80;;
4027;SDS011;2028;51.346;12.396;2023-04-03T07:29:21;6.27;;;2.97;;
4027;SDS011;2028;51.346;12.396;2023-04-03T07:31:47;4.17;;;2.73;;
4027;SDS011;2028;51.346;12.396;2023-04-03T07:34:14;5.47;;;2.77;;
4027;SDS011;2028;51.346;12.396;2023-04-03T07:36:41;5.83;;;2.80;;
4027;SDS011;2028;51.346;12.396;2023-04-03T07:39:07;4.13;;;3.40;;
4027;SDS011;2028;51.346;12.396;2023-04-03T07:41:33;5.13;;;2.67;;
4027;SDS011;2028;51.346;12.396;2023-04-03T07:44:00;3.83;;;2.57;;
4027;SDS011;2028;51.346;12.396;2023-04-03T07:46:26;6.83;;;4.40;;
4027;SDS011;2028;51.346;12.396;2023-04-03T07:48:53;5.80;;;3.00;;
4027;SDS011;2028;51.346;12.396;2023-04-03T07:51:19;5.53;;;3.40;;
4027;SDS011;2028;51.346;12.396;2023-04-03T07:53:45;4.93;;;3.00;;
4027;SDS011;2028;51.346;12.396;2023-04-03T07:56:11;5.90;;;3.13;;
4027;SDS011;2028;51.346;12.396;2023-04-03T07:58:37;6.10;;;3.20;;
4027;SDS011;2028;51.346;12.396;2023-04-03T08:01:04;4.43;;;2.80;;
4027;SDS011;2028;51.346;12.396;2023-04-03T08:03:31;8.00;;;3.10;;
4027;SDS011;2028;51.346;12.396;2023-04-03T08:06:01;3.70;;;3.03;;
4027;SDS011;2028;51.346;12.396;2023-04-03T08:08:28;5.88;;;3.08;;
4027;SDS011;2028;51.346;12.396;2023-04-03T08:10:55;5.70;;;2.97;;
4027;SDS011;2028;51.346;12.396;2023-04-03T08:13:22;5.22;;;2.80;;
4027;SDS011;2028;51.346;12.396;2023-04-03T08:15:48;6.27;;;2.80;;
4027;SDS011;2028;51.346;12.396;2023-04-03T08:18:15;6.55;;;2.80;;
4027;SDS011;2028;51.346;12.396;2023-04-03T08:20:41;2.90;;;2.55;;
4027;SDS011;2028;51.346;12.396;2023-04-03T08:23:08;5.38;;;2.75;;
4027;SDS011;2028;51.346;12.396;2023-04-03T08:25:41;5.75;;;2.70;;
4027;SDS011;2028;51.346;12.396;2023-04-03T08:28:08;4.85;;;2.83;;
4027;SDS011;2028;51.346;12.396;2023-04-03T08:30:35;4.00;;;2.75;;
4027;SDS011;2028;51.346;12.396;2023-04-03T08:33:02;4.20;;;2.90;;
4027;SDS011;2028;51.346;12.396;2023-04-03T08:35:28;4.65;;;3.40;;
4027;SDS011;2028;51.346;12.396;2023-04-03T08:37:54;4.63;;;3.25;;
4027;SDS011;2028;51.346;12.396;2023-04-03T08:40:21;6.55;;;4.28;;
4027;SDS011;2028;51.346;12.396;2023-04-03T08:45:43;6.78;;;3.20;;
4027;SDS011;2028;51.346;12.396;2023-04-03T08:48:14;3.75;;;2.65;;
4027;SDS011;2028;51.346;12.396;2023-04-03T08:50:43;4.30;;;2.55;;
4027;SDS011;2028;51.346;12.396;2023-04-03T08:53:23;8.00;;;4.93;;
4027;SDS011;2028;51.346;12.396;2023-04-03T08:55:52;7.40;;;2.78;;
4027;SDS011;2028;51.346;12.396;2023-04-03T08:58:24;5.53;;;2.70;;
4027;SDS011;2028;51.346;12.396;2023-04-03T09:03:23;4.97;;;2.83;;
4027;SDS011;2028;51.346;12.396;2023-04-03T09:05:54;4.80;;;2.97;;
4027;SDS011;2028;51.346;12.396;2023-04-03T09:08:22;4.53;;;2.77;;
4027;SDS011;2028;51.346;12.396;2023-04-03T09:13:35;3.37;;;2.20;;
4027;SDS011;2028;51.346;12.396;2023-04-03T09:16:14;4.27;;;2.87;;
4027;SDS011;2028;51.346;12.396;2023-04-03T09:19:23;5.17;;;2.73;;
4027;SDS011;2028;51.346;12.396;2023-04-03T09:21:55;3.67;;;2.17;;
4027;SDS011;2028;51.346;12.396;2023-04-03T09:24:22;10.57;;;3.23;;
4027;SDS011;2028;51.346;12.396;2023-04-03T09:29:25;7.87;;;3.13;;
4027;SDS011;2028;51.346;12.396;2023-04-03T09:32:01;3.40;;;2.70;;
4027;SDS011;2028;51.346;12.396;2023-04-03T09:34:29;4.97;;;2.37;;
4027;SDS011;2028;51.346;12.396;2023-04-03T09:37:02;4.37;;;2.63;;
4027;SDS011;2028;51.346;12.396;2023-04-03T09:41:59;8.27;;;2.53;;
4027;SDS011;2028;51.346;12.396;2023-04-03T09:46:55;4.13;;;2.10;;
4027;SDS011;2028;51.346;12.396;2023-04-03T09:49:22;4.33;;;2.40;;
4027;SDS011;2028;51.346;12.396;2023-04-03T09:51:48;2.63;;;2.33;;
4027;SDS011;2028;51.346;12.396;2023-04-03T09:54:25;2.70;;;1.80;;
4027;SDS011;2028;51.346;12.396;2023-04-03T09:56:53;3.77;;;2.37;;
4027;SDS011;2028;51.346;12.396;2023-04-03T09:59:20;3.93;;;2.27;;
4027;SDS011;2028;51.346;12.396;2023-04-03T10:04:40;4.47;;;2.60;;
4027;SDS011;2028;51.346;12.396;2023-04-03T10:07:26;5.37;;;3.70;;
4027;SDS011;2028;51.346;12.396;2023-04-03T10:10:03;3.57;;;2.30;;
4027;SDS011;2028;51.346;12.396;2023-04-03T10:12:29;3.33;;;3.00;;
4027;SDS011;2028;51.346;12.396;2023-04-03T10:14:58;6.37;;;3.43;;
4027;SDS011;2028;51.346;12.396;2023-04-03T10:17:33;3.33;;;2.90;;
4027;SDS011;2028;51.346;12.396;2023-04-03T10:20:26;3.77;;;2.27;;
4027;SDS011;2028;51.346;12.396;2023-04-03T10:23:27;4.53;;;2.47;;
4027;SDS011;2028;51.346;12.396;2023-04-03T10:26:29;3.87;;;3.23;;
4027;SDS011;2028;51.346;12.396;2023-04-03T10:31:48;4.60;;;2.57;;
4027;SDS011;2028;51.346;12.396;2023-04-03T10:34:37;7.20;;;2.83;;
4027;SDS011;2028;51.346;12.396;2023-04-03T10:39:44;5.20;;;2.73;;
4027;SDS011;2028;51.346;12.396;2023-04-03T10:42:16;3.10;;;2.63;;
4027;SDS011;2028;51.346;12.396;2023-04-03T10:47:54;5.20;;;3.37;;
4027;SDS011;2028;51.346;12.396;2023-04-03T10:58:50;5.03;;;2.30;;
4027;SDS011;2028;51.346;12.396;2023-04-03T11:01:36;4.27;;;2.60;;
4027;SDS011;2028;51.346;12.396;2023-04-03T11:04:05;4.10;;;2.63;;
4027;SDS011;2028;51.346;12.396;2023-04-03T11:06:37;4.07;;;3.30;;
4027;SDS011;2028;51.346;12.396;2023-04-03T11:11:50;3.37;;;2.37;;
4027;SDS011;2028;51.346;12.396;2023-04-03T11:14:21;4.33;;;2.57;;
4027;SDS011;2028;51.346;12.396;2023-04-03T11:16:55;4.13;;;2.63;;
4027;SDS011;2028;51.346;12.396;2023-04-03T11:19:34;4.23;;;2.70;;
4027;SDS011;2028;51.346;12.396;2023-04-03T11:22:03;3.77;;;2.80;;
4027;SDS011;2028;51.346;12.396;2023-04-03T11:24:31;8.30;;;4.20;;
4027;SDS011;2028;51.346;12.396;2023-04-03T11:26:58;3.90;;;3.50;;
4027;SDS011;2028;51.346;12.396;2023-04-03T11:29:31;4.10;;;2.77;;
4027;SDS011;2028;51.346;12.396;2023-04-03T11:34:37;4.80;;;2.90;;
4027;SDS011;2028;51.346;12.396;2023-04-03T11:39:39;4.20;;;3.37;;
4027;SDS011;2028;51.346;12.396;2023-04-03T11:45:16;3.97;;;2.90;;
4027;SDS011;2028;51.346;12.396;2023-04-03T11:47:53;5.63;;;3.13;;
4027;SDS011;2028;51.346;12.396;2023-04-03T11:53:00;5.87;;;3.87;;
4027;SDS011;2028;51.346;12.396;2023-04-03T12:05:56;5.10;;;3.07;;
4027;SDS011;2028;51.346;12.396;2023-04-03T12:08:34;3.57;;;2.60;;
4027;SDS011;2028;51.346;12.396;2023-04-03T12:18:57;7.57;;;3.33;;
4027;SDS011;2028;51.346;12.396;2023-04-03T12:27:00;4.27;;;2.60;;
4027;SDS011;2028;51.346;12.396;2023-04-03T12:34:40;3.53;;;2.93;;
4027;SDS011;2028;51.346;12.396;2023-04-03T12:47:31;5.23;;;2.97;;
4027;SDS011;2028;51.346;12.396;2023-04-03T12:50:02;7.23;;;3.10;;
4027;SDS011;2028;51.346;12.396;2023-04-03T12:52:37;3.53;;;2.37;;
4027;SDS011;2028;51.346;12.396;2023-04-03T12:57:35;5.07;;;2.80;;
4027;SDS011;2028;51.346;12.396;2023-04-03T13:00:18;4.10;;;2.70;;
4027;SDS011;2028;51.346;12.396;2023-04-03T13:02:44;6.10;;;3.03;;
4027;SDS011;2028;51.346;12.396;2023-04-03T13:05:15;5.47;;;2.70;;
4027;SDS011;2028;51.346;12.396;2023-04-03T13:07:42;4.43;;;2.70;;
4027;SDS011;2028;51.346;12.396;2023-04-03T13:12:45;3.90;;;2.77;;
4027;SDS011;2028;51.346;12.396;2023-04-03T13:15:13;4.77;;;2.60;;
4027;SDS011;2028;51.346;12.396;2023-04-03T13:17:43;3.87;;;2.40;;
4027;SDS011;2028;51.346;12.396;2023-04-03T13:22:52;3.80;;;2.85;;
4027;SDS011;2028;51.346;12.396;2023-04-03T13:25:19;4.18;;;2.65;;
4027;SDS011;2028;51.346;12.396;2023-04-03T13:27:46;5.13;;;2.90;;
4027;SDS011;2028;51.346;12.396;2023-04-03T13:32:45;3.97;;;2.60;;
4027;SDS011;2028;51.346;12.396;2023-04-03T13:35:29;5.93;;;2.50;;
4027;SDS011;2028;51.346;12.396;2023-04-03T13:37:56;5.70;;;2.80;;
4027;SDS011;2028;51.346;12.396;2023-04-03T13:40:24;3.67;;;2.43;;
4027;SDS011;2028;51.346;12.396;2023-04-03T13:43:02;2.60;;;2.30;;
4027;SDS011;2028;51.346;12.396;2023-04-03T13:45:53;3.85;;;2.55;;
4027;SDS011;2028;51.346;12.396;2023-04-03T13:48:20;4.78;;;3.00;;
4027;SDS011;2028;51.346;12.396;2023-04-03T13:51:04;3.87;;;2.97;;
4027;SDS011;2028;51.346;12.396;2023-04-03T13:53:43;5.20;;;3.10;;
4027;SDS011;2028;51.346;12.396;2023-04-03T13:56:18;4.97;;;3.07;;
4027;SDS011;2028;51.346;12.396;2023-04-03T13:59:00;3.70;;;2.50;;
4027;SDS011;2028;51.346;12.396;2023-04-03T14:02:05;5.90;;;2.67;;
4027;SDS011;2028;51.346;12.396;2023-04-03T14:07:11;5.50;;;2.80;;
4027;SDS011;2028;51.346;12.396;2023-04-03T14:09:38;4.33;;;2.97;;
4027;SDS011;2028;51.346;12.396;2023-04-03T14:12:12;3.15;;;2.85;;
4027;SDS011;2028;51.346;12.396;2023-04-03T14:14:42;5.55;;;3.17;;
4027;SDS011;2028;51.346;12.396;2023-04-03T14:17:20;4.40;;;2.72;;
4027;SDS011;2028;51.346;12.396;2023-04-03T14:19:46;5.38;;;2.72;;
4027;SDS011;2028;51.346;12.396;2023-04-03T14:22:17;2.83;;;2.33;;
4027;SDS011;2028;51.346;12.396;2023-04-03T14:24:44;3.28;;;2.88;;
4027;SDS011;2028;51.346;12.396;2023-04-03T14:29:44;3.50;;;2.42;;
4027;SDS011;2028;51.346;12.396;2023-04-03T14:32:11;4.18;;;2.67;;
4027;SDS011;2028;51.346;12.396;2023-04-03T14:34:38;4.45;;;2.67;;
4027;SDS011;2028;51.346;12.396;2023-04-03T14:37:05;3.45;;;2.67;;
4027;SDS011;2028;51.346;12.396;2023-04-03T14:39:31;4.10;;;2.58;;
4027;SDS011;2028;51.346;12.396;2023-04-03T14:41:57;4.50;;;3.10;;
4027;SDS011;2028;51.346;12.396;2023-04-03T14:44:23;3.53;;;2.53;;
4027;SDS011;2028;51.346;12.396;2023-04-03T14:46:50;3.03;;;2.70;;
4027;SDS011;2028;51.346;12.396;2023-04-03T14:51:47;2.65;;;2.25;;
4027;SDS011;2028;51.346;12.396;2023-04-03T14:54:15;4.20;;;2.72;;
4027;SDS011;2028;51.346;12.396;2023-04-03T14:56:42;5.03;;;2.83;;
4027;SDS011;2028;51.346;12.396;2023-04-03T14:59:11;4.38;;;2.95;;
4027;SDS011;2028;51.346;12.396;2023-04-03T15:01:37;3.15;;;2.55;;
4027;SDS011;2028;51.346;12.396;2023-04-03T15:04:10;3.47;;;2.97;;
4027;SDS011;2028;51.346;12.396;2023-04-03T15:06:38;5.97;;;3.58;;
4027;SDS011;2028;51.346;12.396;2023-04-03T15:09:04;4.70;;;3.25;;
4027;SDS011;2028;51.346;12.396;2023-04-03T15:11:31;4.50;;;3.60;;
4027;SDS011;2028;51.346;12.396;2023-04-03T15:13:57;5.63;;;3.40;;
4027;SDS011;2028;51.346;12.396;2023-04-03T15:16:23;4.40;;;3.28;;
4027;SDS011;2028;51.346;12.396;2023-04-03T15:18:49;3.65;;;3.20;;
4027;SDS011;2028;51.346;12.396;2023-04-03T15:21:16;4.82;;;3.40;;
4027;SDS011;2028;51.346;12.396;2023-04-03T15:23:42;5.07;;;3.60;;
4027;SDS011;2028;51.346;12.396;2023-04-03T15:26:09;4.28;;;3.70;;
4027;SDS011;2028;51.346;12.396;2023-04-03T15:28:42;4.20;;;3.67;;
4027;SDS011;2028;51.346;12.396;2023-04-03T15:31:09;3.42;;;2.60;;
4027;SDS011;2028;51.346;12.396;2023-04-03T15:33:35;2.70;;;2.50;;
4027;SDS011;2028;51.346;12.396;2023-04-03T15:36:02;3.00;;;2.70;;
4027;SDS011;2028;51.346;12.396;2023-04-03T15:38:29;2.90;;;2.60;;
4027;SDS011;2028;51.346;12.396;2023-04-03T15:40:55;3.80;;;2.53;;
4027;SDS011;2028;51.346;12.396;2023-04-03T15:43:21;4.00;;;2.70;;
4027;SDS011;2028;51.346;12.396;2023-04-03T15:45:48;3.85;;;2.50;;
4027;SDS011;2028;51.346;12.396;2023-04-03T15:48:16;4.45;;;2.47;;
4027;SDS011;2028;51.346;12.396;2023-04-03T15:50:42;2.80;;;2.60;;
4027;SDS011;2028;51.346;12.396;2023-04-03T15:53:09;4.38;;;3.45;;
4027;SDS011;2028;51.346;12.396;2023-04-03T15:55:36;5.03;;;3.50;;
4027;SDS011;2028;51.346;12.396;2023-04-03T15:58:03;6.63;;;5.55;;
4027;SDS011;2028;51.346;12.396;2023-04-03T16:00:30;3.63;;;2.60;;
4027;SDS011;2028;51.346;12.396;2023-04-03T16:03:02;4.68;;;2.88;;
4027;SDS011;2028;51.346;12.396;2023-04-03T16:05:31;3.42;;;2.70;;
4027;SDS011;2028;51.346;12.396;2023-04-03T16:07:58;3.38;;;2.58;;
4027;SDS011;2028;51.346;12.396;2023-04-03T16:10:25;3.17;;;2.70;;
4027;SDS011;2028;51.346;12.396;2023-04-03T16:12:52;3.97;;;2.80;;
4027;SDS011;2028;51.346;12.396;2023-04-03T16:15:18;4.88;;;3.17;;
4027;SDS011;2028;51.346;12.396;2023-04-03T16:17:44;3.22;;;2.85;;
4027;SDS011;2028;51.346;12.396;2023-04-03T16:20:11;2.78;;;2.53;;
4027;SDS011;2028;51.346;12.396;2023-04-03T16:22:38;3.55;;;2.80;;
4027;SDS011;2028;51.346;12.396;2023-04-03T16:25:05;3.55;;;3.17;;
4027;SDS011;2028;51.346;12.396;2023-04-03T16:27:32;4.10;;;3.20;;
4027;SDS011;2028;51.346;12.396;2023-04-03T16:29:58;3.42;;;2.72;;
4027;SDS011;2028;51.346;12.396;2023-04-03T16:32:26;4.28;;;3.35;;
4027;SDS011;2028;51.346;12.396;2023-04-03T16:34:54;4.05;;;3.38;;
4027;SDS011;2028;51.346;12.396;2023-04-03T16:37:21;4.10;;;3.17;;
4027;SDS011;2028;51.346;12.396;2023-04-03T16:39:47;2.75;;;2.53;;
4027;SDS011;2028;51.346;12.396;2023-04-03T21:35:47;4.38;;;3.97;;
4027;SDS011;2028;51.346;12.396;2023-04-03T21:38:21;4.03;;;3.33;;
4027;SDS011;2028;51.346;12.396;2023-04-03T21:40:48;3.50;;;3.05;;
4027;SDS011;2028;51.346;12.396;2023-04-03T21:43:16;3.03;;;2.83;;
4027;SDS011;2028;51.346;12.396;2023-04-03T21:45:42;5.00;;;3.38;;
4027;SDS011;2028;51.346;12.396;2023-04-03T21:48:08;3.67;;;3.22;;
4027;SDS011;2028;51.346;12.396;2023-04-03T21:50:34;3.78;;;3.40;;
4027;SDS011;2028;51.346;12.396;2023-04-03T21:53:01;4.63;;;3.08;;